sensor_id;sensor_type;location;lat;lon;timestamp;P1;durP1;ratioP1;P2;durP2;ratioP2
10110;SDS011;5095;49.796;9.934;2023-05-16T00:00:41;4.03;;;3.30;;
10110;SDS011;5095;49.796;9.934;2023-05-16T00:03:07;5.23;;;3.50;;
10110;SDS011;5095;49.796;9.934;2023-05-16T00:05:34;4.30;;;3.40;;
10110;SDS011;5095;49.796;9.934;2023-05-16T00:08:00;4.33;;;3.37;;
10110;SDS011;5095;49.796;9.934;2023-05-16T00:10:26;5.40;;;3.77;;
10110;SDS011;5095;49.796;9.934;2023-05-16T00:12:52;5.27;;;3.23;;
10110;SDS011;5095;49.796;9.934;2023-05-16T00:15:20;4.47;;;3.50;;
10110;SDS011;5095;49.796;9.934;2023-05-16T00:17:47;3.90;;;3.50;;
10110;SDS011;5095;49.796;9.934;2023-05-16T00:20:13;4.90;;;3.50;;
10110;SDS011;5095;49.796;9.934;2023-05-16T00:22:41;5.17;;;3.70;;
10110;SDS011;5095;49.796;9.934;2023-05-16T00:25:07;4.57;;;3.93;;
10110;SDS011;5095;49.796;9.934;2023-05-16T00:27:34;5.57;;;3.60;;
10110;SDS011;5095;49.796;9.934;2023-05-16T00:30:00;5.23;;;3.77;;
10110;SDS011;5095;49.796;9.934;2023-05-16T00:32:26;7.50;;;4.03;;
10110;SDS011;5095;49.796;9.934;2023-05-16T00:34:53;9.97;;;4.10;;
10110;SDS011;5095;49.796;9.934;2023-05-16T00:37:20;7.40;;;4.00;;
10110;SDS011;5095;49.796;9.934;2023-05-16T00:39:46;4.67;;;4.00;;
10110;SDS011;5095;49.796;9.934;2023-05-16T00:42:12;5.40;;;3.70;;
10110;SDS011;5095;49.796;9.934;2023-05-16T00:44:38;5.63;;;3.60;;
10110;SDS011;5095;49.796;9.934;2023-05-16T00:47:04;6.53;;;4.10;;
10110;SDS011;5095;49.796;9.934;2023-05-16T00:49:30;4.67;;;3.50;;
10110;SDS011;5095;49.796;9.934;2023-05-16T00:51:56;5.57;;;3.67;;
10110;SDS011;5095;49.796;9.934;2023-05-16T00:54:23;6.83;;;4.43;;
10110;SDS011;5095;49.796;9.934;2023-05-16T00:56:52;6.77;;;3.87;;
10110;SDS011;5095;49.796;9.934;2023-05-16T00:59:19;6.60;;;3.40;;
10110;SDS011;5095;49.796;9.934;2023-05-16T01:01:45;6.07;;;3.83;;
10110;SDS011;5095;49.796;9.934;2023-05-16T01:04:14;6.20;;;3.70;;
10110;SDS011;5095;49.796;9.934;2023-05-16T01:06:41;5.03;;;3.70;;
10110;SDS011;5095;49.796;9.934;2023-05-16T01:09:07;5.30;;;4.07;;
10110;SDS011;5095;49.796;9.934;2023-05-16T01:23:33;7.73;;;4.70;;
10110;SDS011;5095;49.796;9.934;2023-05-16T01:28:24;5.57;;;4.30;;
10110;SDS011;5095;49.796;9.934;2023-05-16T01:30:50;7.07;;;4.30;;
10110;SDS011;5095;49.796;9.934;2023-05-16T01:33:16;5.90;;;4.30;;
10110;SDS011;5095;49.796;9.934;2023-05-16T01:35:44;6.67;;;4.60;;
10110;SDS011;5095;49.796;9.934;2023-05-16T01:40:47;6.90;;;3.97;;
10110;SDS011;5095;49.796;9.934;2023-05-16T01:43:16;5.80;;;4.07;;
10110;SDS011;5095;49.796;9.934;2023-05-16T01:45:50;6.50;;;4.17;;
10110;SDS011;5095;49.796;9.934;2023-05-16T01:48:21;5.60;;;3.90;;
10110;SDS011;5095;49.796;9.934;2023-05-16T01:50:49;5.33;;;4.03;;
10110;SDS011;5095;49.796;9.934;2023-05-16T01:53:27;5.83;;;4.10;;
10110;SDS011;5095;49.796;9.934;2023-05-16T01:55:58;5.30;;;3.77;;
10110;SDS011;5095;49.796;9.934;2023-05-16T01:58:26;4.70;;;4.00;;
10110;SDS011;5095;49.796;9.934;2023-05-16T02:00:53;4.60;;;4.00;;
10110;SDS011;5095;49.796;9.934;2023-05-16T02:03:19;5.10;;;4.10;;
10110;SDS011;5095;49.796;9.934;2023-05-16T02:05:45;5.33;;;4.00;;
10110;SDS011;5095;49.796;9.934;2023-05-16T02:08:12;4.90;;;3.93;;
10110;SDS011;5095;49.796;9.934;2023-05-16T02:10:38;4.80;;;3.90;;
10110;SDS011;5095;49.796;9.934;2023-05-16T02:13:05;5.37;;;4.40;;
10110;SDS011;5095;49.796;9.934;2023-05-16T02:15:31;6.80;;;4.30;;
10110;SDS011;5095;49.796;9.934;2023-05-16T02:17:57;5.83;;;4.20;;
10110;SDS011;5095;49.796;9.934;2023-05-16T02:20:23;6.27;;;4.50;;
10110;SDS011;5095;49.796;9.934;2023-05-16T02:22:49;5.67;;;4.20;;
10110;SDS011;5095;49.796;9.934;2023-05-16T02:25:15;5.43;;;4.17;;
10110;SDS011;5095;49.796;9.934;2023-05-16T02:27:42;6.00;;;4.80;;
10110;SDS011;5095;49.796;9.934;2023-05-16T02:30:09;5.20;;;4.17;;
10110;SDS011;5095;49.796;9.934;2023-05-16T02:32:36;6.00;;;4.50;;
10110;SDS011;5095;49.796;9.934;2023-05-16T02:35:02;5.97;;;4.70;;
10110;SDS011;5095;49.796;9.934;2023-05-16T02:37:28;6.80;;;4.87;;
10110;SDS011;5095;49.796;9.934;2023-05-16T02:39:54;6.17;;;4.77;;
10110;SDS011;5095;49.796;9.934;2023-05-16T02:42:20;5.83;;;4.70;;
10110;SDS011;5095;49.796;9.934;2023-05-16T02:44:46;6.83;;;5.00;;
10110;SDS011;5095;49.796;9.934;2023-05-16T02:47:13;7.47;;;5.47;;
10110;SDS011;5095;49.796;9.934;2023-05-16T02:49:39;5.97;;;4.73;;
10110;SDS011;5095;49.796;9.934;2023-05-16T02:52:05;8.10;;;5.30;;
10110;SDS011;5095;49.796;9.934;2023-05-16T02:54:31;7.43;;;4.93;;
10110;SDS011;5095;49.796;9.934;2023-05-16T02:56:57;6.30;;;4.97;;
10110;SDS011;5095;49.796;9.934;2023-05-16T02:59:23;7.10;;;5.30;;
10110;SDS011;5095;49.796;9.934;2023-05-16T03:01:50;8.10;;;5.00;;
10110;SDS011;5095;49.796;9.934;2023-05-16T03:04:16;7.40;;;4.90;;
10110;SDS011;5095;49.796;9.934;2023-05-16T03:06:42;6.50;;;5.40;;
10110;SDS011;5095;49.796;9.934;2023-05-16T03:09:08;8.03;;;6.30;;
10110;SDS011;5095;49.796;9.934;2023-05-16T03:11:35;8.23;;;5.20;;
10110;SDS011;5095;49.796;9.934;2023-05-16T03:14:01;8.13;;;5.70;;
10110;SDS011;5095;49.796;9.934;2023-05-16T03:16:27;8.23;;;5.50;;
10110;SDS011;5095;49.796;9.934;2023-05-16T03:18:54;7.60;;;5.67;;
10110;SDS011;5095;49.796;9.934;2023-05-16T03:21:21;9.37;;;6.07;;
10110;SDS011;5095;49.796;9.934;2023-05-16T03:23:47;7.97;;;5.97;;
10110;SDS011;5095;49.796;9.934;2023-05-16T03:26:13;6.87;;;5.83;;
10110;SDS011;5095;49.796;9.934;2023-05-16T03:28:39;8.60;;;6.23;;
10110;SDS011;5095;49.796;9.934;2023-05-16T03:31:05;7.83;;;6.50;;
10110;SDS011;5095;49.796;9.934;2023-05-16T03:33:31;7.27;;;6.47;;
10110;SDS011;5095;49.796;9.934;2023-05-16T03:35:57;8.13;;;6.57;;
10110;SDS011;5095;49.796;9.934;2023-05-16T03:38:23;9.93;;;6.67;;
10110;SDS011;5095;49.796;9.934;2023-05-16T03:40:49;7.67;;;6.20;;
10110;SDS011;5095;49.796;9.934;2023-05-16T03:43:15;11.33;;;7.20;;
10110;SDS011;5095;49.796;9.934;2023-05-16T03:45:41;12.27;;;7.00;;
10110;SDS011;5095;49.796;9.934;2023-05-16T03:48:08;8.63;;;6.53;;
10110;SDS011;5095;49.796;9.934;2023-05-16T03:50:34;9.53;;;6.93;;
10110;SDS011;5095;49.796;9.934;2023-05-16T03:53:01;9.73;;;7.87;;
10110;SDS011;5095;49.796;9.934;2023-05-16T03:55:28;15.87;;;9.63;;
10110;SDS011;5095;49.796;9.934;2023-05-16T03:57:55;12.77;;;8.83;;
10110;SDS011;5095;49.796;9.934;2023-05-16T04:00:21;12.33;;;8.93;;
10110;SDS011;5095;49.796;9.934;2023-05-16T04:02:47;11.03;;;7.80;;
10110;SDS011;5095;49.796;9.934;2023-05-16T04:05:13;9.30;;;7.30;;
10110;SDS011;5095;49.796;9.934;2023-05-16T04:07:39;14.73;;;9.53;;
10110;SDS011;5095;49.796;9.934;2023-05-16T04:10:05;8.47;;;6.70;;
10110;SDS011;5095;49.796;9.934;2023-05-16T04:12:32;10.43;;;7.07;;
10110;SDS011;5095;49.796;9.934;2023-05-16T04:14:58;9.83;;;7.27;;
10110;SDS011;5095;49.796;9.934;2023-05-16T04:17:24;12.17;;;7.20;;
10110;SDS011;5095;49.796;9.934;2023-05-16T04:19:50;12.00;;;7.67;;
10110;SDS011;5095;49.796;9.934;2023-05-16T04:22:16;11.70;;;6.67;;
10110;SDS011;5095;49.796;9.934;2023-05-16T04:24:42;11.80;;;7.20;;
10110;SDS011;5095;49.796;9.934;2023-05-16T04:27:08;8.60;;;6.97;;
10110;SDS011;5095;49.796;9.934;2023-05-16T04:29:34;8.00;;;6.80;;
10110;SDS011;5095;49.796;9.934;2023-05-16T04:32:00;10.30;;;7.03;;
10110;SDS011;5095;49.796;9.934;2023-05-16T04:34:27;7.23;;;6.53;;
10110;SDS011;5095;49.796;9.934;2023-05-16T04:36:54;10.07;;;6.77;;
10110;SDS011;5095;49.796;9.934;2023-05-16T04:39:21;10.40;;;6.73;;
10110;SDS011;5095;49.796;9.934;2023-05-16T04:41:47;8.30;;;5.97;;
10110;SDS011;5095;49.796;9.934;2023-05-16T04:44:14;7.47;;;6.03;;
10110;SDS011;5095;49.796;9.934;2023-05-16T04:46:40;9.23;;;5.93;;
10110;SDS011;5095;49.796;9.934;2023-05-16T04:49:06;6.07;;;5.20;;
10110;SDS011;5095;49.796;9.934;2023-05-16T04:51:32;7.57;;;5.60;;
10110;SDS011;5095;49.796;9.934;2023-05-16T04:53:59;9.77;;;5.33;;
10110;SDS011;5095;49.796;9.934;2023-05-16T04:56:25;8.23;;;5.63;;
10110;SDS011;5095;49.796;9.934;2023-05-16T04:58:51;9.13;;;5.57;;
10110;SDS011;5095;49.796;9.934;2023-05-16T05:01:18;7.07;;;5.80;;
10110;SDS011;5095;49.796;9.934;2023-05-16T05:03:44;8.03;;;5.77;;
10110;SDS011;5095;49.796;9.934;2023-05-16T05:06:11;8.37;;;5.17;;
10110;SDS011;5095;49.796;9.934;2023-05-16T05:08:37;10.63;;;5.93;;
10110;SDS011;5095;49.796;9.934;2023-05-16T05:11:03;8.53;;;5.57;;
10110;SDS011;5095;49.796;9.934;2023-05-16T05:13:29;11.23;;;5.70;;
10110;SDS011;5095;49.796;9.934;2023-05-16T05:15:55;9.63;;;5.23;;
10110;SDS011;5095;49.796;9.934;2023-05-16T05:18:21;6.20;;;5.07;;
10110;SDS011;5095;49.796;9.934;2023-05-16T05:20:47;7.70;;;5.43;;
10110;SDS011;5095;49.796;9.934;2023-05-16T05:23:13;8.13;;;5.40;;
10110;SDS011;5095;49.796;9.934;2023-05-16T05:25:42;6.20;;;5.30;;
10110;SDS011;5095;49.796;9.934;2023-05-16T05:28:08;6.83;;;5.57;;
10110;SDS011;5095;49.796;9.934;2023-05-16T05:30:34;6.43;;;5.27;;
10110;SDS011;5095;49.796;9.934;2023-05-16T05:33:01;7.50;;;5.93;;
10110;SDS011;5095;49.796;9.934;2023-05-16T05:35:27;16.53;;;6.57;;
10110;SDS011;5095;49.796;9.934;2023-05-16T05:37:53;13.37;;;6.00;;
10110;SDS011;5095;49.796;9.934;2023-05-16T05:40:19;7.70;;;5.70;;
10110;SDS011;5095;49.796;9.934;2023-05-16T05:42:45;6.17;;;5.17;;
10110;SDS011;5095;49.796;9.934;2023-05-16T05:45:11;11.47;;;6.97;;
10110;SDS011;5095;49.796;9.934;2023-05-16T05:47:37;8.30;;;6.33;;
10110;SDS011;5095;49.796;9.934;2023-05-16T05:50:03;8.97;;;5.97;;
10110;SDS011;5095;49.796;9.934;2023-05-16T05:52:30;9.50;;;6.23;;
10110;SDS011;5095;49.796;9.934;2023-05-16T05:54:56;12.67;;;6.53;;
10110;SDS011;5095;49.796;9.934;2023-05-16T05:57:23;8.17;;;6.10;;
10110;SDS011;5095;49.796;9.934;2023-05-16T05:59:49;9.00;;;6.00;;
10110;SDS011;5095;49.796;9.934;2023-05-16T06:02:15;8.70;;;6.23;;
10110;SDS011;5095;49.796;9.934;2023-05-16T06:04:42;9.67;;;6.30;;
10110;SDS011;5095;49.796;9.934;2023-05-16T06:07:09;8.53;;;6.20;;
10110;SDS011;5095;49.796;9.934;2023-05-16T06:09:35;8.87;;;6.00;;
10110;SDS011;5095;49.796;9.934;2023-05-16T06:12:01;10.17;;;6.37;;
10110;SDS011;5095;49.796;9.934;2023-05-16T06:14:28;14.00;;;7.13;;
10110;SDS011;5095;49.796;9.934;2023-05-16T06:16:54;7.70;;;6.03;;
10110;SDS011;5095;49.796;9.934;2023-05-16T06:19:20;8.23;;;5.87;;
10110;SDS011;5095;49.796;9.934;2023-05-16T06:21:46;13.40;;;6.37;;
10110;SDS011;5095;49.796;9.934;2023-05-16T06:24:12;8.57;;;6.23;;
10110;SDS011;5095;49.796;9.934;2023-05-16T06:26:38;8.93;;;6.80;;
10110;SDS011;5095;49.796;9.934;2023-05-16T06:29:04;10.77;;;6.67;;
10110;SDS011;5095;49.796;9.934;2023-05-16T06:31:31;12.30;;;6.63;;
10110;SDS011;5095;49.796;9.934;2023-05-16T06:33:57;10.43;;;6.50;;
10110;SDS011;5095;49.796;9.934;2023-05-16T06:36:23;10.60;;;6.93;;
10110;SDS011;5095;49.796;9.934;2023-05-16T06:38:49;13.47;;;6.73;;
10110;SDS011;5095;49.796;9.934;2023-05-16T06:41:15;9.87;;;7.37;;
10110;SDS011;5095;49.796;9.934;2023-05-16T06:43:41;10.07;;;6.70;;
10110;SDS011;5095;49.796;9.934;2023-05-16T06:46:07;9.60;;;7.13;;
10110;SDS011;5095;49.796;9.934;2023-05-16T06:48:33;9.20;;;6.77;;
10110;SDS011;5095;49.796;9.934;2023-05-16T06:50:59;10.97;;;7.73;;
10110;SDS011;5095;49.796;9.934;2023-05-16T06:53:25;11.43;;;7.37;;
10110;SDS011;5095;49.796;9.934;2023-05-16T06:55:52;9.67;;;7.77;;
10110;SDS011;5095;49.796;9.934;2023-05-16T06:58:18;10.87;;;7.43;;
10110;SDS011;5095;49.796;9.934;2023-05-16T07:00:44;12.00;;;8.47;;
10110;SDS011;5095;49.796;9.934;2023-05-16T07:03:10;9.87;;;7.43;;
10110;SDS011;5095;49.796;9.934;2023-05-16T07:05:36;9.93;;;7.43;;
10110;SDS011;5095;49.796;9.934;2023-05-16T07:08:02;10.37;;;7.00;;
10110;SDS011;5095;49.796;9.934;2023-05-16T07:10:28;8.70;;;7.43;;
10110;SDS011;5095;49.796;9.934;2023-05-16T07:12:54;9.67;;;7.37;;
10110;SDS011;5095;49.796;9.934;2023-05-16T07:15:20;12.17;;;8.03;;
10110;SDS011;5095;49.796;9.934;2023-05-16T07:17:47;11.00;;;7.67;;
10110;SDS011;5095;49.796;9.934;2023-05-16T07:20:14;9.43;;;7.13;;
10110;SDS011;5095;49.796;9.934;2023-05-16T07:22:40;9.17;;;7.33;;
10110;SDS011;5095;49.796;9.934;2023-05-16T07:25:06;8.97;;;7.47;;
10110;SDS011;5095;49.796;9.934;2023-05-16T07:27:36;9.67;;;7.60;;
10110;SDS011;5095;49.796;9.934;2023-05-16T07:30:03;13.90;;;8.03;;
10110;SDS011;5095;49.796;9.934;2023-05-16T07:32:29;9.63;;;7.50;;
10110;SDS011;5095;49.796;9.934;2023-05-16T07:34:55;10.27;;;7.63;;
10110;SDS011;5095;49.796;9.934;2023-05-16T07:37:21;9.73;;;7.50;;
10110;SDS011;5095;49.796;9.934;2023-05-16T07:39:48;8.73;;;7.00;;
10110;SDS011;5095;49.796;9.934;2023-05-16T07:42:14;9.20;;;7.57;;
10110;SDS011;5095;49.796;9.934;2023-05-16T07:44:40;9.37;;;7.33;;
10110;SDS011;5095;49.796;9.934;2023-05-16T07:47:06;9.70;;;7.57;;
10110;SDS011;5095;49.796;9.934;2023-05-16T07:49:32;9.17;;;7.37;;
10110;SDS011;5095;49.796;9.934;2023-05-16T07:51:58;8.53;;;6.53;;
10110;SDS011;5095;49.796;9.934;2023-05-16T07:54:24;8.73;;;6.47;;
10110;SDS011;5095;49.796;9.934;2023-05-16T07:56:50;8.03;;;6.87;;
10110;SDS011;5095;49.796;9.934;2023-05-16T07:59:16;9.10;;;6.83;;
10110;SDS011;5095;49.796;9.934;2023-05-16T08:01:42;9.23;;;7.23;;
10110;SDS011;5095;49.796;9.934;2023-05-16T08:04:08;8.83;;;7.10;;
10110;SDS011;5095;49.796;9.934;2023-05-16T08:06:34;8.93;;;6.93;;
10110;SDS011;5095;49.796;9.934;2023-05-16T08:09:01;8.40;;;6.37;;
10110;SDS011;5095;49.796;9.934;2023-05-16T08:11:27;10.20;;;6.67;;
10110;SDS011;5095;49.796;9.934;2023-05-16T08:13:53;11.57;;;7.00;;
10110;SDS011;5095;49.796;9.934;2023-05-16T08:16:19;8.93;;;6.80;;
10110;SDS011;5095;49.796;9.934;2023-05-16T08:18:45;11.43;;;6.83;;
10110;SDS011;5095;49.796;9.934;2023-05-16T08:21:11;8.67;;;6.07;;
10110;SDS011;5095;49.796;9.934;2023-05-16T08:23:38;8.83;;;6.57;;
10110;SDS011;5095;49.796;9.934;2023-05-16T08:26:04;8.07;;;6.27;;
10110;SDS011;5095;49.796;9.934;2023-05-16T08:28:30;8.57;;;6.60;;
10110;SDS011;5095;49.796;9.934;2023-05-16T08:30:57;8.67;;;7.43;;
10110;SDS011;5095;49.796;9.934;2023-05-16T08:33:23;7.73;;;5.93;;
10110;SDS011;5095;49.796;9.934;2023-05-16T08:35:49;9.03;;;6.17;;
10110;SDS011;5095;49.796;9.934;2023-05-16T08:38:17;8.77;;;6.33;;
10110;SDS011;5095;49.796;9.934;2023-05-16T08:40:43;8.00;;;5.60;;
10110;SDS011;5095;49.796;9.934;2023-05-16T08:43:09;8.07;;;6.07;;
10110;SDS011;5095;49.796;9.934;2023-05-16T08:45:35;8.30;;;6.00;;
10110;SDS011;5095;49.796;9.934;2023-05-16T08:48:01;7.17;;;5.97;;
10110;SDS011;5095;49.796;9.934;2023-05-16T08:50:30;13.13;;;5.80;;
10110;SDS011;5095;49.796;9.934;2023-05-16T08:52:56;12.67;;;6.50;;
10110;SDS011;5095;49.796;9.934;2023-05-16T08:55:23;8.63;;;5.50;;
10110;SDS011;5095;49.796;9.934;2023-05-16T08:57:51;7.60;;;5.43;;
10110;SDS011;5095;49.796;9.934;2023-05-16T09:00:17;6.57;;;4.90;;
10110;SDS011;5095;49.796;9.934;2023-05-16T09:02:44;7.53;;;5.60;;
10110;SDS011;5095;49.796;9.934;2023-05-16T09:05:14;8.07;;;4.87;;
10110;SDS011;5095;49.796;9.934;2023-05-16T09:07:41;6.97;;;4.93;;
10110;SDS011;5095;49.796;9.934;2023-05-16T09:10:07;6.67;;;4.70;;
10110;SDS011;5095;49.796;9.934;2023-05-16T09:12:34;6.70;;;4.97;;
10110;SDS011;5095;49.796;9.934;2023-05-16T09:15:04;7.03;;;4.77;;
10110;SDS011;5095;49.796;9.934;2023-05-16T09:17:33;6.37;;;5.10;;
10110;SDS011;5095;49.796;9.934;2023-05-16T09:20:06;7.03;;;5.40;;
10110;SDS011;5095;49.796;9.934;2023-05-16T09:22:33;9.67;;;5.53;;
10110;SDS011;5095;49.796;9.934;2023-05-16T09:24:59;6.27;;;5.03;;
10110;SDS011;5095;49.796;9.934;2023-05-16T09:27:25;7.57;;;5.20;;
10110;SDS011;5095;49.796;9.934;2023-05-16T09:29:51;7.17;;;5.27;;
10110;SDS011;5095;49.796;9.934;2023-05-16T09:32:18;10.53;;;5.40;;
10110;SDS011;5095;49.796;9.934;2023-05-16T09:34:45;8.23;;;5.53;;
10110;SDS011;5095;49.796;9.934;2023-05-16T09:37:13;12.37;;;7.67;;
10110;SDS011;5095;49.796;9.934;2023-05-16T09:39:39;7.57;;;5.80;;
10110;SDS011;5095;49.796;9.934;2023-05-16T09:42:12;5.83;;;4.70;;
10110;SDS011;5095;49.796;9.934;2023-05-16T09:44:38;9.97;;;7.03;;
10110;SDS011;5095;49.796;9.934;2023-05-16T09:47:04;7.20;;;4.93;;
10110;SDS011;5095;49.796;9.934;2023-05-16T09:49:31;6.07;;;4.63;;
10110;SDS011;5095;49.796;9.934;2023-05-16T09:52:00;9.17;;;4.90;;
10110;SDS011;5095;49.796;9.934;2023-05-16T09:54:30;6.50;;;4.93;;
10110;SDS011;5095;49.796;9.934;2023-05-16T09:56:56;6.40;;;4.53;;
10110;SDS011;5095;49.796;9.934;2023-05-16T09:59:23;5.47;;;4.67;;
10110;SDS011;5095;49.796;9.934;2023-05-16T10:01:49;7.20;;;4.97;;
10110;SDS011;5095;49.796;9.934;2023-05-16T10:04:15;9.60;;;5.50;;
10110;SDS011;5095;49.796;9.934;2023-05-16T10:06:41;6.03;;;4.67;;
10110;SDS011;5095;49.796;9.934;2023-05-16T10:09:11;8.33;;;5.23;;
10110;SDS011;5095;49.796;9.934;2023-05-16T10:11:39;7.33;;;5.03;;
10110;SDS011;5095;49.796;9.934;2023-05-16T10:14:06;5.30;;;4.13;;
10110;SDS011;5095;49.796;9.934;2023-05-16T10:16:32;5.40;;;4.30;;
10110;SDS011;5095;49.796;9.934;2023-05-16T10:18:58;6.73;;;3.97;;
10110;SDS011;5095;49.796;9.934;2023-05-16T10:21:25;6.77;;;4.33;;
10110;SDS011;5095;49.796;9.934;2023-05-16T10:23:53;6.97;;;4.63;;
10110;SDS011;5095;49.796;9.934;2023-05-16T10:26:21;5.30;;;4.03;;
10110;SDS011;5095;49.796;9.934;2023-05-16T10:28:48;8.53;;;4.23;;
10110;SDS011;5095;49.796;9.934;2023-05-16T10:31:15;5.70;;;3.90;;
10110;SDS011;5095;49.796;9.934;2023-05-16T10:33:41;5.20;;;3.83;;
10110;SDS011;5095;49.796;9.934;2023-05-16T10:36:08;6.80;;;3.87;;
10110;SDS011;5095;49.796;9.934;2023-05-16T10:38:35;4.90;;;3.23;;
10110;SDS011;5095;49.796;9.934;2023-05-16T10:41:01;9.97;;;6.60;;
10110;SDS011;5095;49.796;9.934;2023-05-16T10:43:30;9.47;;;4.40;;
10110;SDS011;5095;49.796;9.934;2023-05-16T10:48:36;4.43;;;2.70;;
10110;SDS011;5095;49.796;9.934;2023-05-16T10:51:03;4.57;;;3.00;;
10110;SDS011;5095;49.796;9.934;2023-05-16T10:53:36;3.70;;;2.73;;
10110;SDS011;5095;49.796;9.934;2023-05-16T11:06:22;2.10;;;1.90;;
10110;SDS011;5095;49.796;9.934;2023-05-16T11:11:42;4.43;;;1.40;;
10110;SDS011;5095;49.796;9.934;2023-05-16T11:14:25;39.57;;;5.40;;
10110;SDS011;5095;49.796;9.934;2023-05-16T11:22:20;1.00;;;0.87;;
10110;SDS011;5095;49.796;9.934;2023-05-16T11:24:50;1.60;;;1.20;;
10110;SDS011;5095;49.796;9.934;2023-05-16T11:27:27;11.30;;;1.73;;
10110;SDS011;5095;49.796;9.934;2023-05-16T11:29:54;2.43;;;0.90;;
10110;SDS011;5095;49.796;9.934;2023-05-16T11:32:23;2.43;;;0.93;;
10110;SDS011;5095;49.796;9.934;2023-05-16T11:34:49;1.47;;;0.90;;
10110;SDS011;5095;49.796;9.934;2023-05-16T11:37:16;1.00;;;0.90;;
10110;SDS011;5095;49.796;9.934;2023-05-16T11:39:43;1.27;;;1.17;;
10110;SDS011;5095;49.796;9.934;2023-05-16T11:42:09;0.90;;;0.80;;
10110;SDS011;5095;49.796;9.934;2023-05-16T11:44:37;1.03;;;0.80;;
10110;SDS011;5095;49.796;9.934;2023-05-16T11:47:04;1.37;;;1.10;;
10110;SDS011;5095;49.796;9.934;2023-05-16T11:49:30;4.30;;;1.10;;
10110;SDS011;5095;49.796;9.934;2023-05-16T11:51:56;2.23;;;1.27;;
10110;SDS011;5095;49.796;9.934;2023-05-16T11:54:22;2.60;;;1.00;;
10110;SDS011;5095;49.796;9.934;2023-05-16T11:56:51;2.50;;;1.27;;
10110;SDS011;5095;49.796;9.934;2023-05-16T11:59:18;1.00;;;0.87;;
10110;SDS011;5095;49.796;9.934;2023-05-16T12:01:45;2.60;;;1.03;;
10110;SDS011;5095;49.796;9.934;2023-05-16T12:04:14;0.87;;;0.87;;
10110;SDS011;5095;49.796;9.934;2023-05-16T12:06:41;1.20;;;1.00;;
10110;SDS011;5095;49.796;9.934;2023-05-16T12:09:12;1.40;;;0.87;;
10110;SDS011;5095;49.796;9.934;2023-05-16T12:11:39;1.73;;;1.07;;
10110;SDS011;5095;49.796;9.934;2023-05-16T12:14:06;1.63;;;1.00;;
10110;SDS011;5095;49.796;9.934;2023-05-16T12:16:33;2.13;;;1.00;;
10110;SDS011;5095;49.796;9.934;2023-05-16T12:19:01;1.90;;;0.90;;
10110;SDS011;5095;49.796;9.934;2023-05-16T12:21:28;2.33;;;1.60;;
10110;SDS011;5095;49.796;9.934;2023-05-16T12:23:55;2.80;;;1.37;;
10110;SDS011;5095;49.796;9.934;2023-05-16T12:26:32;1.30;;;1.00;;
10110;SDS011;5095;49.796;9.934;2023-05-16T12:28:59;1.53;;;0.80;;
10110;SDS011;5095;49.796;9.934;2023-05-16T12:31:31;1.17;;;1.07;;
10110;SDS011;5095;49.796;9.934;2023-05-16T12:34:00;2.00;;;1.20;;
10110;SDS011;5095;49.796;9.934;2023-05-16T12:36:29;6.33;;;3.30;;
10110;SDS011;5095;49.796;9.934;2023-05-16T12:38:58;1.20;;;0.97;;
10110;SDS011;5095;49.796;9.934;2023-05-16T12:41:25;2.70;;;1.37;;
10110;SDS011;5095;49.796;9.934;2023-05-16T12:43:51;3.73;;;1.10;;
10110;SDS011;5095;49.796;9.934;2023-05-16T12:46:30;1.90;;;0.73;;
10110;SDS011;5095;49.796;9.934;2023-05-16T12:49:02;2.50;;;1.20;;
10110;SDS011;5095;49.796;9.934;2023-05-16T12:51:29;2.03;;;1.00;;
10110;SDS011;5095;49.796;9.934;2023-05-16T12:53:56;1.67;;;1.20;;
10110;SDS011;5095;49.796;9.934;2023-05-16T12:56:22;2.40;;;1.27;;
10110;SDS011;5095;49.796;9.934;2023-05-16T12:58:49;4.73;;;1.23;;
10110;SDS011;5095;49.796;9.934;2023-05-16T13:01:16;1.43;;;1.10;;
10110;SDS011;5095;49.796;9.934;2023-05-16T13:03:42;1.37;;;1.00;;
10110;SDS011;5095;49.796;9.934;2023-05-16T13:06:08;7.63;;;2.60;;
10110;SDS011;5095;49.796;9.934;2023-05-16T13:08:34;4.47;;;1.20;;
10110;SDS011;5095;49.796;9.934;2023-05-16T13:11:00;2.17;;;1.50;;
10110;SDS011;5095;49.796;9.934;2023-05-16T13:13:26;1.97;;;1.20;;
10110;SDS011;5095;49.796;9.934;2023-05-16T13:15:52;2.93;;;1.43;;
10110;SDS011;5095;49.796;9.934;2023-05-16T13:18:19;2.27;;;1.30;;
10110;SDS011;5095;49.796;9.934;2023-05-16T13:20:45;5.90;;;1.10;;
10110;SDS011;5095;49.796;9.934;2023-05-16T13:23:11;4.30;;;1.70;;
10110;SDS011;5095;49.796;9.934;2023-05-16T13:25:37;4.50;;;1.40;;
10110;SDS011;5095;49.796;9.934;2023-05-16T13:28:03;3.80;;;1.40;;
10110;SDS011;5095;49.796;9.934;2023-05-16T13:30:29;2.53;;;1.17;;
10110;SDS011;5095;49.796;9.934;2023-05-16T13:32:56;11.13;;;6.20;;
10110;SDS011;5095;49.796;9.934;2023-05-16T13:35:22;3.17;;;1.30;;
10110;SDS011;5095;49.796;9.934;2023-05-16T13:37:49;5.23;;;1.87;;
10110;SDS011;5095;49.796;9.934;2023-05-16T13:40:15;2.50;;;1.30;;
10110;SDS011;5095;49.796;9.934;2023-05-16T13:42:41;3.73;;;1.40;;
10110;SDS011;5095;49.796;9.934;2023-05-16T13:45:07;2.37;;;1.23;;
10110;SDS011;5095;49.796;9.934;2023-05-16T13:47:33;4.83;;;1.63;;
10110;SDS011;5095;49.796;9.934;2023-05-16T13:50:00;3.30;;;1.40;;
10110;SDS011;5095;49.796;9.934;2023-05-16T13:52:30;5.37;;;1.30;;
10110;SDS011;5095;49.796;9.934;2023-05-16T13:54:56;5.40;;;1.50;;
10110;SDS011;5095;49.796;9.934;2023-05-16T13:57:22;3.80;;;1.27;;
10110;SDS011;5095;49.796;9.934;2023-05-16T13:59:48;5.50;;;1.67;;
10110;SDS011;5095;49.796;9.934;2023-05-16T14:02:14;4.53;;;1.43;;
10110;SDS011;5095;49.796;9.934;2023-05-16T14:04:40;5.80;;;1.93;;
10110;SDS011;5095;49.796;9.934;2023-05-16T14:07:06;5.07;;;1.50;;
10110;SDS011;5095;49.796;9.934;2023-05-16T14:09:33;6.03;;;1.50;;
10110;SDS011;5095;49.796;9.934;2023-05-16T14:12:01;6.03;;;1.73;;
10110;SDS011;5095;49.796;9.934;2023-05-16T14:14:27;4.77;;;1.70;;
10110;SDS011;5095;49.796;9.934;2023-05-16T14:16:53;5.97;;;1.43;;
10110;SDS011;5095;49.796;9.934;2023-05-16T14:19:19;3.70;;;1.30;;
10110;SDS011;5095;49.796;9.934;2023-05-16T14:21:45;5.47;;;1.70;;
10110;SDS011;5095;49.796;9.934;2023-05-16T14:24:12;6.93;;;1.80;;
10110;SDS011;5095;49.796;9.934;2023-05-16T14:26:38;6.97;;;1.73;;
10110;SDS011;5095;49.796;9.934;2023-05-16T14:29:05;7.23;;;2.57;;
10110;SDS011;5095;49.796;9.934;2023-05-16T14:31:31;6.47;;;1.60;;
10110;SDS011;5095;49.796;9.934;2023-05-16T14:33:57;4.43;;;1.70;;
10110;SDS011;5095;49.796;9.934;2023-05-16T14:36:23;4.83;;;1.67;;
10110;SDS011;5095;49.796;9.934;2023-05-16T14:38:50;5.37;;;1.80;;
10110;SDS011;5095;49.796;9.934;2023-05-16T14:41:16;6.17;;;1.80;;
10110;SDS011;5095;49.796;9.934;2023-05-16T14:43:43;8.10;;;1.63;;
10110;SDS011;5095;49.796;9.934;2023-05-16T14:46:09;2.73;;;1.20;;
10110;SDS011;5095;49.796;9.934;2023-05-16T14:48:35;2.67;;;1.40;;
10110;SDS011;5095;49.796;9.934;2023-05-16T14:51:01;2.90;;;1.03;;
10110;SDS011;5095;49.796;9.934;2023-05-16T14:53:28;4.20;;;1.10;;
10110;SDS011;5095;49.796;9.934;2023-05-16T14:55:55;3.47;;;1.20;;
10110;SDS011;5095;49.796;9.934;2023-05-16T14:58:21;3.33;;;1.00;;
10110;SDS011;5095;49.796;9.934;2023-05-16T15:00:48;4.37;;;1.23;;
10110;SDS011;5095;49.796;9.934;2023-05-16T15:03:15;4.40;;;1.13;;
10110;SDS011;5095;49.796;9.934;2023-05-16T15:05:41;5.60;;;1.30;;
10110;SDS011;5095;49.796;9.934;2023-05-16T15:08:07;3.27;;;1.20;;
10110;SDS011;5095;49.796;9.934;2023-05-16T15:10:33;5.03;;;1.50;;
10110;SDS011;5095;49.796;9.934;2023-05-16T15:13:00;6.60;;;1.20;;
10110;SDS011;5095;49.796;9.934;2023-05-16T15:15:26;5.67;;;1.10;;
10110;SDS011;5095;49.796;9.934;2023-05-16T15:17:52;4.60;;;0.97;;
10110;SDS011;5095;49.796;9.934;2023-05-16T15:20:19;2.57;;;1.00;;
10110;SDS011;5095;49.796;9.934;2023-05-16T15:22:46;3.40;;;1.07;;
10110;SDS011;5095;49.796;9.934;2023-05-16T15:25:12;4.20;;;1.20;;
10110;SDS011;5095;49.796;9.934;2023-05-16T15:27:38;2.47;;;0.87;;
10110;SDS011;5095;49.796;9.934;2023-05-16T15:30:04;1.33;;;0.63;;
10110;SDS011;5095;49.796;9.934;2023-05-16T15:32:31;5.87;;;1.37;;
10110;SDS011;5095;49.796;9.934;2023-05-16T15:34:57;2.53;;;1.10;;